sensor_id;sensor_type;location;lat;lon;timestamp;P1;durP1;ratioP1;P2;durP2;ratioP2
14704;SDS011;7442;50.840;3.396;2023-07-09T00:00:12;11.03;;;9.85;;
14704;SDS011;7442;50.840;3.396;2023-07-09T00:03:00;12.88;;;9.58;;
14704;SDS011;7442;50.840;3.396;2023-07-09T00:05:47;10.58;;;8.88;;
14704;SDS011;7442;50.840;3.396;2023-07-09T00:08:34;10.18;;;8.95;;
14704;SDS011;7442;50.840;3.396;2023-07-09T00:11:20;10.90;;;9.68;;
14704;SDS011;7442;50.840;3.396;2023-07-09T00:14:07;12.90;;;9.73;;
14704;SDS011;7442;50.840;3.396;2023-07-09T00:16:55;12.30;;;9.50;;
14704;SDS011;7442;50.840;3.396;2023-07-09T00:19:41;12.13;;;10.40;;
14704;SDS011;7442;50.840;3.396;2023-07-09T00:22:29;11.68;;;9.93;;
14704;SDS011;7442;50.840;3.396;2023-07-09T00:25:15;11.12;;;10.03;;
14704;SDS011;7442;50.840;3.396;2023-07-09T00:28:02;13.32;;;10.38;;
14704;SDS011;7442;50.840;3.396;2023-07-09T00:30:49;12.93;;;9.93;;
14704;SDS011;7442;50.840;3.396;2023-07-09T00:33:36;11.33;;;10.10;;
14704;SDS011;7442;50.840;3.396;2023-07-09T00:36:27;13.10;;;10.55;;
14704;SDS011;7442;50.840;3.396;2023-07-09T00:39:19;13.75;;;11.53;;
14704;SDS011;7442;50.840;3.396;2023-07-09T00:42:08;13.08;;;11.05;;
14704;SDS011;7442;50.840;3.396;2023-07-09T00:44:59;14.65;;;11.55;;
14704;SDS011;7442;50.840;3.396;2023-07-09T00:47:53;12.33;;;10.95;;
14704;SDS011;7442;50.840;3.396;2023-07-09T00:50:46;13.20;;;11.83;;
14704;SDS011;7442;50.840;3.396;2023-07-09T00:53:34;12.55;;;11.22;;
14704;SDS011;7442;50.840;3.396;2023-07-09T00:56:24;13.43;;;11.15;;
14704;SDS011;7442;50.840;3.396;2023-07-09T00:59:10;15.53;;;11.48;;
14704;SDS011;7442;50.840;3.396;2023-07-09T01:01:59;13.72;;;11.97;;
14704;SDS011;7442;50.840;3.396;2023-07-09T01:04:46;15.43;;;11.55;;
14704;SDS011;7442;50.840;3.396;2023-07-09T01:07:32;12.53;;;11.10;;
14704;SDS011;7442;50.840;3.396;2023-07-09T01:10:19;15.30;;;11.68;;
14704;SDS011;7442;50.840;3.396;2023-07-09T01:13:06;13.90;;;11.05;;
14704;SDS011;7442;50.840;3.396;2023-07-09T01:15:53;13.78;;;11.28;;
14704;SDS011;7442;50.840;3.396;2023-07-09T01:18:40;13.32;;;10.88;;
14704;SDS011;7442;50.840;3.396;2023-07-09T01:21:27;17.20;;;11.95;;
14704;SDS011;7442;50.840;3.396;2023-07-09T01:24:15;13.28;;;10.58;;
14704;SDS011;7442;50.840;3.396;2023-07-09T01:27:04;11.97;;;10.70;;
14704;SDS011;7442;50.840;3.396;2023-07-09T01:29:51;13.53;;;10.00;;
14704;SDS011;7442;50.840;3.396;2023-07-09T01:32:38;13.18;;;11.00;;
14704;SDS011;7442;50.840;3.396;2023-07-09T01:35:27;11.90;;;10.48;;
14704;SDS011;7442;50.840;3.396;2023-07-09T01:38:14;11.18;;;10.08;;
14704;SDS011;7442;50.840;3.396;2023-07-09T01:41:01;12.95;;;10.50;;
14704;SDS011;7442;50.840;3.396;2023-07-09T01:43:48;13.05;;;11.05;;
14704;SDS011;7442;50.840;3.396;2023-07-09T01:46:34;11.95;;;10.70;;
14704;SDS011;7442;50.840;3.396;2023-07-09T01:49:20;12.33;;;9.80;;
14704;SDS011;7442;50.840;3.396;2023-07-09T01:52:07;12.50;;;10.60;;
14704;SDS011;7442;50.840;3.396;2023-07-09T01:54:53;13.25;;;10.40;;
14704;SDS011;7442;50.840;3.396;2023-07-09T01:57:41;12.23;;;10.90;;
14704;SDS011;7442;50.840;3.396;2023-07-09T02:00:27;11.45;;;10.10;;
14704;SDS011;7442;50.840;3.396;2023-07-09T02:03:14;15.30;;;12.25;;
14704;SDS011;7442;50.840;3.396;2023-07-09T02:06:02;12.58;;;10.88;;
14704;SDS011;7442;50.840;3.396;2023-07-09T02:08:50;12.23;;;10.95;;
14704;SDS011;7442;50.840;3.396;2023-07-09T02:11:36;12.15;;;10.70;;
14704;SDS011;7442;50.840;3.396;2023-07-09T02:14:22;15.58;;;11.57;;
14704;SDS011;7442;50.840;3.396;2023-07-09T02:17:10;12.55;;;11.00;;
14704;SDS011;7442;50.840;3.396;2023-07-09T02:19:57;17.05;;;11.28;;
14704;SDS011;7442;50.840;3.396;2023-07-09T02:22:43;13.75;;;11.63;;
14704;SDS011;7442;50.840;3.396;2023-07-09T02:25:30;12.65;;;10.88;;
14704;SDS011;7442;50.840;3.396;2023-07-09T02:28:16;13.40;;;10.40;;
14704;SDS011;7442;50.840;3.396;2023-07-09T02:31:03;13.98;;;11.40;;
14704;SDS011;7442;50.840;3.396;2023-07-09T02:33:49;12.65;;;10.78;;
14704;SDS011;7442;50.840;3.396;2023-07-09T02:36:35;13.58;;;10.45;;
14704;SDS011;7442;50.840;3.396;2023-07-09T02:39:22;11.97;;;10.78;;
14704;SDS011;7442;50.840;3.396;2023-07-09T02:42:09;13.10;;;10.95;;
14704;SDS011;7442;50.840;3.396;2023-07-09T02:44:56;12.58;;;10.78;;
14704;SDS011;7442;50.840;3.396;2023-07-09T02:47:42;12.50;;;10.70;;
14704;SDS011;7442;50.840;3.396;2023-07-09T02:50:30;12.37;;;10.25;;
14704;SDS011;7442;50.840;3.396;2023-07-09T02:53:16;12.43;;;10.20;;
14704;SDS011;7442;50.840;3.396;2023-07-09T02:56:02;12.45;;;9.10;;
14704;SDS011;7442;50.840;3.396;2023-07-09T02:58:49;12.18;;;10.25;;
14704;SDS011;7442;50.840;3.396;2023-07-09T03:01:36;12.28;;;10.68;;
14704;SDS011;7442;50.840;3.396;2023-07-09T03:04:22;11.73;;;9.13;;
14704;SDS011;7442;50.840;3.396;2023-07-09T03:07:09;12.95;;;10.28;;
14704;SDS011;7442;50.840;3.396;2023-07-09T03:09:55;11.10;;;9.43;;
14704;SDS011;7442;50.840;3.396;2023-07-09T03:12:41;12.00;;;10.25;;
14704;SDS011;7442;50.840;3.396;2023-07-09T03:15:27;11.48;;;9.18;;
14704;SDS011;7442;50.840;3.396;2023-07-09T03:18:14;12.50;;;10.10;;
14704;SDS011;7442;50.840;3.396;2023-07-09T03:21:00;10.40;;;9.35;;
14704;SDS011;7442;50.840;3.396;2023-07-09T03:23:46;10.55;;;9.28;;
14704;SDS011;7442;50.840;3.396;2023-07-09T03:26:33;10.78;;;9.38;;
14704;SDS011;7442;50.840;3.396;2023-07-09T03:29:19;10.72;;;9.63;;
14704;SDS011;7442;50.840;3.396;2023-07-09T03:32:05;11.55;;;9.65;;
14704;SDS011;7442;50.840;3.396;2023-07-09T03:34:51;10.68;;;9.10;;
14704;SDS011;7442;50.840;3.396;2023-07-09T03:37:38;10.55;;;9.48;;
14704;SDS011;7442;50.840;3.396;2023-07-09T03:40:24;10.03;;;9.00;;
14704;SDS011;7442;50.840;3.396;2023-07-09T03:43:10;10.05;;;8.98;;
14704;SDS011;7442;50.840;3.396;2023-07-09T03:45:58;10.25;;;9.15;;
14704;SDS011;7442;50.840;3.396;2023-07-09T03:48:44;11.40;;;9.85;;
14704;SDS011;7442;50.840;3.396;2023-07-09T03:51:30;11.43;;;10.15;;
14704;SDS011;7442;50.840;3.396;2023-07-09T03:54:16;10.13;;;9.05;;
14704;SDS011;7442;50.840;3.396;2023-07-09T03:57:02;11.97;;;9.28;;
14704;SDS011;7442;50.840;3.396;2023-07-09T03:59:50;10.38;;;9.25;;
14704;SDS011;7442;50.840;3.396;2023-07-09T04:02:37;10.15;;;9.03;;
14704;SDS011;7442;50.840;3.396;2023-07-09T04:05:24;11.25;;;10.15;;
14704;SDS011;7442;50.840;3.396;2023-07-09T04:08:10;10.20;;;9.20;;
14704;SDS011;7442;50.840;3.396;2023-07-09T04:11:01;13.50;;;9.93;;
14704;SDS011;7442;50.840;3.396;2023-07-09T04:13:48;9.85;;;8.65;;
14704;SDS011;7442;50.840;3.396;2023-07-09T04:16:34;11.40;;;9.48;;
14704;SDS011;7442;50.840;3.396;2023-07-09T04:19:20;12.30;;;9.13;;
14704;SDS011;7442;50.840;3.396;2023-07-09T04:22:08;11.05;;;9.73;;
14704;SDS011;7442;50.840;3.396;2023-07-09T04:24:55;10.43;;;9.33;;
14704;SDS011;7442;50.840;3.396;2023-07-09T04:27:42;10.35;;;8.58;;
14704;SDS011;7442;50.840;3.396;2023-07-09T04:30:28;11.08;;;8.65;;
14704;SDS011;7442;50.840;3.396;2023-07-09T04:33:15;9.83;;;8.80;;
14704;SDS011;7442;50.840;3.396;2023-07-09T04:36:03;8.53;;;7.62;;
14704;SDS011;7442;50.840;3.396;2023-07-09T04:38:50;10.53;;;9.30;;
14704;SDS011;7442;50.840;3.396;2023-07-09T04:41:37;9.85;;;8.80;;
14704;SDS011;7442;50.840;3.396;2023-07-09T04:44:23;11.43;;;7.53;;
14704;SDS011;7442;50.840;3.396;2023-07-09T04:47:10;10.40;;;8.33;;
14704;SDS011;7442;50.840;3.396;2023-07-09T04:49:58;11.05;;;8.63;;
14704;SDS011;7442;50.840;3.396;2023-07-09T04:52:44;9.68;;;8.50;;
14704;SDS011;7442;50.840;3.396;2023-07-09T04:55:30;9.25;;;7.22;;
14704;SDS011;7442;50.840;3.396;2023-07-09T04:58:16;10.15;;;7.75;;
14704;SDS011;7442;50.840;3.396;2023-07-09T05:01:03;8.95;;;7.58;;
14704;SDS011;7442;50.840;3.396;2023-07-09T05:03:49;10.58;;;8.13;;
14704;SDS011;7442;50.840;3.396;2023-07-09T05:06:35;8.98;;;7.37;;
14704;SDS011;7442;50.840;3.396;2023-07-09T05:09:22;8.85;;;7.22;;
14704;SDS011;7442;50.840;3.396;2023-07-09T05:12:10;8.25;;;7.22;;
14704;SDS011;7442;50.840;3.396;2023-07-09T05:14:56;9.08;;;6.97;;
14704;SDS011;7442;50.840;3.396;2023-07-09T05:17:42;8.40;;;6.75;;
14704;SDS011;7442;50.840;3.396;2023-07-09T05:20:29;8.43;;;7.30;;
14704;SDS011;7442;50.840;3.396;2023-07-09T05:23:15;8.30;;;7.08;;
14704;SDS011;7442;50.840;3.396;2023-07-09T05:26:02;6.70;;;6.10;;
14704;SDS011;7442;50.840;3.396;2023-07-09T05:28:48;7.70;;;6.90;;
14704;SDS011;7442;50.840;3.396;2023-07-09T05:31:35;8.45;;;6.30;;
14704;SDS011;7442;50.840;3.396;2023-07-09T05:34:21;8.15;;;6.62;;
14704;SDS011;7442;50.840;3.396;2023-07-09T05:37:07;6.87;;;6.20;;
14704;SDS011;7442;50.840;3.396;2023-07-09T05:39:53;8.98;;;6.17;;
14704;SDS011;7442;50.840;3.396;2023-07-09T05:42:40;25.52;;;19.95;;
14704;SDS011;7442;50.840;3.396;2023-07-09T05:45:26;30.30;;;22.73;;
14704;SDS011;7442;50.840;3.396;2023-07-09T05:48:13;26.77;;;22.15;;
14704;SDS011;7442;50.840;3.396;2023-07-09T05:50:59;29.25;;;21.07;;
14704;SDS011;7442;50.840;3.396;2023-07-09T05:53:46;29.00;;;22.52;;
14704;SDS011;7442;50.840;3.396;2023-07-09T05:56:32;30.52;;;22.75;;
14704;SDS011;7442;50.840;3.396;2023-07-09T05:59:18;31.68;;;23.52;;
14704;SDS011;7442;50.840;3.396;2023-07-09T06:02:07;30.68;;;21.57;;
14704;SDS011;7442;50.840;3.396;2023-07-09T06:04:54;27.73;;;20.80;;
14704;SDS011;7442;50.840;3.396;2023-07-09T06:07:42;27.42;;;19.77;;
14704;SDS011;7442;50.840;3.396;2023-07-09T06:10:28;23.22;;;17.85;;
14704;SDS011;7442;50.840;3.396;2023-07-09T06:13:15;21.35;;;16.82;;
14704;SDS011;7442;50.840;3.396;2023-07-09T06:16:03;21.17;;;16.55;;
14704;SDS011;7442;50.840;3.396;2023-07-09T06:18:50;22.62;;;16.42;;
14704;SDS011;7442;50.840;3.396;2023-07-09T06:21:36;21.75;;;17.27;;
14704;SDS011;7442;50.840;3.396;2023-07-09T06:24:24;21.73;;;17.23;;
14704;SDS011;7442;50.840;3.396;2023-07-09T06:27:11;19.80;;;16.20;;
14704;SDS011;7442;50.840;3.396;2023-07-09T06:29:57;20.60;;;14.70;;
14704;SDS011;7442;50.840;3.396;2023-07-09T06:32:43;19.87;;;14.65;;
14704;SDS011;7442;50.840;3.396;2023-07-09T06:35:30;18.92;;;14.83;;
14704;SDS011;7442;50.840;3.396;2023-07-09T06:38:16;20.43;;;14.10;;
14704;SDS011;7442;50.840;3.396;2023-07-09T06:41:03;21.17;;;14.47;;
14704;SDS011;7442;50.840;3.396;2023-07-09T06:43:50;18.00;;;14.47;;
14704;SDS011;7442;50.840;3.396;2023-07-09T06:46:37;20.82;;;14.70;;
14704;SDS011;7442;50.840;3.396;2023-07-09T06:49:24;19.35;;;14.58;;
14704;SDS011;7442;50.840;3.396;2023-07-09T06:52:10;18.70;;;12.65;;
14704;SDS011;7442;50.840;3.396;2023-07-09T06:54:57;18.57;;;12.35;;
14704;SDS011;7442;50.840;3.396;2023-07-09T06:57:43;14.23;;;12.13;;
14704;SDS011;7442;50.840;3.396;2023-07-09T07:00:29;17.80;;;13.15;;
14704;SDS011;7442;50.840;3.396;2023-07-09T07:03:17;18.12;;;13.10;;
14704;SDS011;7442;50.840;3.396;2023-07-09T07:06:04;19.42;;;12.90;;
14704;SDS011;7442;50.840;3.396;2023-07-09T07:08:51;18.10;;;12.88;;
14704;SDS011;7442;50.840;3.396;2023-07-09T07:11:38;20.08;;;12.35;;
14704;SDS011;7442;50.840;3.396;2023-07-09T07:14:24;18.07;;;11.30;;
14704;SDS011;7442;50.840;3.396;2023-07-09T07:17:11;13.22;;;10.28;;
14704;SDS011;7442;50.840;3.396;2023-07-09T07:19:59;16.30;;;9.45;;
14704;SDS011;7442;50.840;3.396;2023-07-09T07:22:45;13.35;;;8.68;;
14704;SDS011;7442;50.840;3.396;2023-07-09T07:25:32;11.78;;;7.90;;
14704;SDS011;7442;50.840;3.396;2023-07-09T07:28:18;15.18;;;7.03;;
14704;SDS011;7442;50.840;3.396;2023-07-09T07:31:06;9.43;;;6.53;;
14704;SDS011;7442;50.840;3.396;2023-07-09T07:33:54;14.90;;;7.05;;
14704;SDS011;7442;50.840;3.396;2023-07-09T07:36:41;14.15;;;7.17;;
14704;SDS011;7442;50.840;3.396;2023-07-09T07:39:29;10.85;;;7.10;;
14704;SDS011;7442;50.840;3.396;2023-07-09T07:42:16;16.85;;;6.33;;
14704;SDS011;7442;50.840;3.396;2023-07-09T07:45:04;12.50;;;6.37;;
14704;SDS011;7442;50.840;3.396;2023-07-09T07:47:52;15.43;;;6.47;;
14704;SDS011;7442;50.840;3.396;2023-07-09T07:50:40;11.08;;;5.75;;
14704;SDS011;7442;50.840;3.396;2023-07-09T07:53:26;9.63;;;5.95;;
14704;SDS011;7442;50.840;3.396;2023-07-09T07:56:14;11.05;;;6.05;;
14704;SDS011;7442;50.840;3.396;2023-07-09T07:59:00;8.48;;;5.15;;
14704;SDS011;7442;50.840;3.396;2023-07-09T08:01:48;14.15;;;5.67;;
14704;SDS011;7442;50.840;3.396;2023-07-09T08:04:35;10.38;;;5.53;;
14704;SDS011;7442;50.840;3.396;2023-07-09T08:07:22;13.58;;;5.22;;
14704;SDS011;7442;50.840;3.396;2023-07-09T08:10:09;14.90;;;5.72;;
14704;SDS011;7442;50.840;3.396;2023-07-09T08:12:56;13.28;;;6.55;;
14704;SDS011;7442;50.840;3.396;2023-07-09T08:15:43;12.18;;;5.65;;
14704;SDS011;7442;50.840;3.396;2023-07-09T08:18:31;10.75;;;5.67;;
14704;SDS011;7442;50.840;3.396;2023-07-09T08:21:18;11.40;;;5.42;;
14704;SDS011;7442;50.840;3.396;2023-07-09T08:24:05;11.18;;;5.50;;
14704;SDS011;7442;50.840;3.396;2023-07-09T08:26:51;10.03;;;5.58;;
14704;SDS011;7442;50.840;3.396;2023-07-09T08:29:38;10.40;;;5.47;;
14704;SDS011;7442;50.840;3.396;2023-07-09T08:32:26;8.80;;;5.28;;
14704;SDS011;7442;50.840;3.396;2023-07-09T08:35:13;9.10;;;4.80;;
14704;SDS011;7442;50.840;3.396;2023-07-09T08:38:00;8.28;;;5.10;;
14704;SDS011;7442;50.840;3.396;2023-07-09T08:40:59;8.28;;;4.67;;
14704;SDS011;7442;50.840;3.396;2023-07-09T08:50:20;9.65;;;4.45;;
14704;SDS011;7442;50.840;3.396;2023-07-09T08:53:18;9.70;;;4.00;;
14704;SDS011;7442;50.840;3.396;2023-07-09T08:56:07;5.92;;;4.05;;
14704;SDS011;7442;50.840;3.396;2023-07-09T08:58:58;6.60;;;4.35;;
14704;SDS011;7442;50.840;3.396;2023-07-09T09:01:49;8.03;;;4.58;;
14704;SDS011;7442;50.840;3.396;2023-07-09T09:04:39;7.37;;;4.28;;
14704;SDS011;7442;50.840;3.396;2023-07-09T09:07:42;6.55;;;3.95;;
14704;SDS011;7442;50.840;3.396;2023-07-09T09:10:33;8.98;;;4.47;;
14704;SDS011;7442;50.840;3.396;2023-07-09T09:13:28;6.90;;;4.05;;
14704;SDS011;7442;50.840;3.396;2023-07-09T09:19:25;7.45;;;4.65;;
14704;SDS011;7442;50.840;3.396;2023-07-09T09:22:10;7.73;;;4.13;;
14704;SDS011;7442;50.840;3.396;2023-07-09T09:28:03;8.83;;;4.60;;
14704;SDS011;7442;50.840;3.396;2023-07-09T09:30:50;4.70;;;3.92;;
14704;SDS011;7442;50.840;3.396;2023-07-09T09:33:37;8.40;;;4.55;;
14704;SDS011;7442;50.840;3.396;2023-07-09T09:36:28;7.50;;;4.70;;
14704;SDS011;7442;50.840;3.396;2023-07-09T09:39:17;5.30;;;4.17;;
14704;SDS011;7442;50.840;3.396;2023-07-09T09:42:08;8.25;;;4.33;;
14704;SDS011;7442;50.840;3.396;2023-07-09T09:44:53;7.50;;;4.45;;
14704;SDS011;7442;50.840;3.396;2023-07-09T09:47:40;8.00;;;4.50;;
14704;SDS011;7442;50.840;3.396;2023-07-09T09:50:30;9.43;;;4.83;;
14704;SDS011;7442;50.840;3.396;2023-07-09T09:53:23;8.13;;;4.70;;
14704;SDS011;7442;50.840;3.396;2023-07-09T09:56:10;8.30;;;4.55;;
14704;SDS011;7442;50.840;3.396;2023-07-09T09:58:58;8.23;;;4.50;;
14704;SDS011;7442;50.840;3.396;2023-07-09T10:01:45;5.42;;;4.10;;
14704;SDS011;7442;50.840;3.396;2023-07-09T10:04:33;7.80;;;4.72;;
14704;SDS011;7442;50.840;3.396;2023-07-09T10:07:32;5.97;;;4.25;;
14704;SDS011;7442;50.840;3.396;2023-07-09T10:10:21;5.92;;;4.30;;
14704;SDS011;7442;50.840;3.396;2023-07-09T10:21:49;8.08;;;4.53;;
14704;SDS011;7442;50.840;3.396;2023-07-09T10:27:32;9.63;;;4.67;;
14704;SDS011;7442;50.840;3.396;2023-07-09T10:30:33;8.70;;;4.67;;
14704;SDS011;7442;50.840;3.396;2023-07-09T10:33:38;8.25;;;4.75;;
14704;SDS011;7442;50.840;3.396;2023-07-09T10:39:34;6.65;;;4.22;;
14704;SDS011;7442;50.840;3.396;2023-07-09T10:42:26;8.93;;;4.65;;
14704;SDS011;7442;50.840;3.396;2023-07-09T10:45:20;8.95;;;5.03;;
14704;SDS011;7442;50.840;3.396;2023-07-09T10:48:12;8.85;;;4.75;;
14704;SDS011;7442;50.840;3.396;2023-07-09T10:50:55;6.42;;;5.33;;
14704;SDS011;7442;50.840;3.396;2023-07-09T10:53:45;8.88;;;5.72;;
14704;SDS011;7442;50.840;3.396;2023-07-09T10:56:46;8.65;;;5.78;;
14704;SDS011;7442;50.840;3.396;2023-07-09T10:59:35;10.65;;;6.08;;
14704;SDS011;7442;50.840;3.396;2023-07-09T11:02:25;9.98;;;6.62;;
14704;SDS011;7442;50.840;3.396;2023-07-09T11:05:15;9.15;;;5.60;;
14704;SDS011;7442;50.840;3.396;2023-07-09T11:08:05;10.70;;;6.28;;
14704;SDS011;7442;50.840;3.396;2023-07-09T11:10:53;7.80;;;6.08;;
14704;SDS011;7442;50.840;3.396;2023-07-09T11:13:43;10.68;;;7.20;;
14704;SDS011;7442;50.840;3.396;2023-07-09T11:16:32;12.43;;;8.00;;
14704;SDS011;7442;50.840;3.396;2023-07-09T11:19:20;10.95;;;7.40;;
14704;SDS011;7442;50.840;3.396;2023-07-09T11:22:20;11.97;;;7.85;;
14704;SDS011;7442;50.840;3.396;2023-07-09T11:28:02;13.15;;;7.92;;
14704;SDS011;7442;50.840;3.396;2023-07-09T11:30:51;11.00;;;8.23;;
14704;SDS011;7442;50.840;3.396;2023-07-09T11:33:46;11.08;;;7.85;;
14704;SDS011;7442;50.840;3.396;2023-07-09T11:36:35;15.63;;;7.95;;
14704;SDS011;7442;50.840;3.396;2023-07-09T11:39:43;10.68;;;7.28;;
14704;SDS011;7442;50.840;3.396;2023-07-09T11:42:33;12.65;;;7.78;;
14704;SDS011;7442;50.840;3.396;2023-07-09T11:45:28;11.22;;;8.03;;
14704;SDS011;7442;50.840;3.396;2023-07-09T11:48:22;9.50;;;7.05;;
14704;SDS011;7442;50.840;3.396;2023-07-09T11:51:10;12.50;;;7.90;;
14704;SDS011;7442;50.840;3.396;2023-07-09T11:54:01;11.97;;;8.38;;
14704;SDS011;7442;50.840;3.396;2023-07-09T11:56:57;11.73;;;7.65;;
14704;SDS011;7442;50.840;3.396;2023-07-09T11:59:46;12.93;;;8.03;;
14704;SDS011;7442;50.840;3.396;2023-07-09T12:02:32;13.05;;;8.43;;
14704;SDS011;7442;50.840;3.396;2023-07-09T12:05:21;13.78;;;8.00;;
14704;SDS011;7442;50.840;3.396;2023-07-09T12:08:10;11.00;;;7.55;;
14704;SDS011;7442;50.840;3.396;2023-07-09T12:10:58;10.43;;;7.12;;
14704;SDS011;7442;50.840;3.396;2023-07-09T12:13:45;9.63;;;7.20;;
14704;SDS011;7442;50.840;3.396;2023-07-09T12:16:36;11.75;;;6.28;;
14704;SDS011;7442;50.840;3.396;2023-07-09T12:19:30;8.50;;;6.40;;
14704;SDS011;7442;50.840;3.396;2023-07-09T12:22:20;8.28;;;6.30;;
14704;SDS011;7442;50.840;3.396;2023-07-09T12:25:12;9.30;;;6.08;;
14704;SDS011;7442;50.840;3.396;2023-07-09T12:28:00;8.78;;;6.78;;
14704;SDS011;7442;50.840;3.396;2023-07-09T12:30:51;9.93;;;6.28;;
14704;SDS011;7442;50.840;3.396;2023-07-09T12:33:45;10.48;;;6.65;;
14704;SDS011;7442;50.840;3.396;2023-07-09T12:36:35;9.75;;;6.65;;
14704;SDS011;7442;50.840;3.396;2023-07-09T12:39:27;8.10;;;6.15;;
14704;SDS011;7442;50.840;3.396;2023-07-09T12:42:15;7.67;;;6.15;;
14704;SDS011;7442;50.840;3.396;2023-07-09T12:45:04;8.35;;;5.75;;
14704;SDS011;7442;50.840;3.396;2023-07-09T12:47:51;6.65;;;5.95;;
14704;SDS011;7442;50.840;3.396;2023-07-09T12:50:38;10.38;;;6.87;;
14704;SDS011;7442;50.840;3.396;2023-07-09T12:53:25;10.38;;;6.58;;
14704;SDS011;7442;50.840;3.396;2023-07-09T12:56:15;8.00;;;6.60;;
14704;SDS011;7442;50.840;3.396;2023-07-09T12:59:02;8.93;;;6.78;;
14704;SDS011;7442;50.840;3.396;2023-07-09T13:01:55;9.93;;;6.80;;
14704;SDS011;7442;50.840;3.396;2023-07-09T13:05:03;9.90;;;7.35;;
14704;SDS011;7442;50.840;3.396;2023-07-09T13:07:51;10.32;;;7.10;;
14704;SDS011;7442;50.840;3.396;2023-07-09T13:10:40;16.70;;;8.33;;
14704;SDS011;7442;50.840;3.396;2023-07-09T13:13:26;10.25;;;7.50;;
14704;SDS011;7442;50.840;3.396;2023-07-09T13:16:13;10.50;;;7.28;;
14704;SDS011;7442;50.840;3.396;2023-07-09T13:19:00;9.08;;;7.30;;
14704;SDS011;7442;50.840;3.396;2023-07-09T13:21:46;9.15;;;7.12;;
14704;SDS011;7442;50.840;3.396;2023-07-09T13:24:32;11.50;;;6.78;;
14704;SDS011;7442;50.840;3.396;2023-07-09T13:27:19;8.75;;;7.28;;
14704;SDS011;7442;50.840;3.396;2023-07-09T13:30:05;9.85;;;6.92;;
14704;SDS011;7442;50.840;3.396;2023-07-09T13:32:53;7.67;;;6.35;;
14704;SDS011;7442;50.840;3.396;2023-07-09T13:35:39;9.45;;;6.55;;
14704;SDS011;7442;50.840;3.396;2023-07-09T13:38:26;8.40;;;6.83;;
14704;SDS011;7442;50.840;3.396;2023-07-09T13:41:13;10.40;;;6.75;;
14704;SDS011;7442;50.840;3.396;2023-07-09T13:44:04;13.08;;;6.85;;
14704;SDS011;7442;50.840;3.396;2023-07-09T13:46:52;10.75;;;6.83;;
14704;SDS011;7442;50.840;3.396;2023-07-09T13:49:39;8.15;;;6.45;;
14704;SDS011;7442;50.840;3.396;2023-07-09T13:52:26;8.13;;;6.28;;
14704;SDS011;7442;50.840;3.396;2023-07-09T13:55:20;8.90;;;6.37;;
14704;SDS011;7442;50.840;3.396;2023-07-09T13:58:14;7.85;;;5.83;;
14704;SDS011;7442;50.840;3.396;2023-07-09T14:01:01;11.70;;;6.72;;
14704;SDS011;7442;50.840;3.396;2023-07-09T14:03:45;9.63;;;6.35;;
14704;SDS011;7442;50.840;3.396;2023-07-09T14:06:32;11.38;;;6.17;;
14704;SDS011;7442;50.840;3.396;2023-07-09T14:09:19;11.15;;;6.97;;
14704;SDS011;7442;50.840;3.396;2023-07-09T14:12:07;10.50;;;6.47;;
14704;SDS011;7442;50.840;3.396;2023-07-09T14:14:56;9.43;;;6.30;;
14704;SDS011;7442;50.840;3.396;2023-07-09T14:17:45;7.12;;;5.90;;
14704;SDS011;7442;50.840;3.396;2023-07-09T14:20:31;7.95;;;5.90;;
14704;SDS011;7442;50.840;3.396;2023-07-09T14:23:18;9.30;;;5.65;;
14704;SDS011;7442;50.840;3.396;2023-07-09T14:26:04;10.38;;;5.78;;
14704;SDS011;7442;50.840;3.396;2023-07-09T14:28:51;8.33;;;5.47;;
14704;SDS011;7442;50.840;3.396;2023-07-09T14:31:38;8.95;;;5.67;;
14704;SDS011;7442;50.840;3.396;2023-07-09T14:34:27;9.33;;;5.75;;
14704;SDS011;7442;50.840;3.396;2023-07-09T14:37:17;8.15;;;5.47;;
14704;SDS011;7442;50.840;3.396;2023-07-09T14:40:04;10.53;;;5.33;;
14704;SDS011;7442;50.840;3.396;2023-07-09T14:42:51;7.03;;;5.17;;
14704;SDS011;7442;50.840;3.396;2023-07-09T14:45:39;7.53;;;5.35;;
14704;SDS011;7442;50.840;3.396;2023-07-09T14:48:25;10.98;;;6.40;;
14704;SDS011;7442;50.840;3.396;2023-07-09T14:51:15;11.48;;;6.33;;
14704;SDS011;7442;50.840;3.396;2023-07-09T14:54:04;11.08;;;6.53;;
14704;SDS011;7442;50.840;3.396;2023-07-09T14:56:51;9.60;;;6.08;;
14704;SDS011;7442;50.840;3.396;2023-07-09T14:59:39;10.05;;;5.83;;
14704;SDS011;7442;50.840;3.396;2023-07-09T15:05:19;12.18;;;5.97;;
14704;SDS011;7442;50.840;3.396;2023-07-09T15:08:16;8.45;;;5.05;;
14704;SDS011;7442;50.840;3.396;2023-07-09T15:11:01;8.88;;;4.60;;
14704;SDS011;7442;50.840;3.396;2023-07-09T15:13:47;8.95;;;5.20;;
14704;SDS011;7442;50.840;3.396;2023-07-09T15:16:33;7.55;;;4.45;;
14704;SDS011;7442;50.840;3.396;2023-07-09T15:19:20;7.00;;;4.17;;
14704;SDS011;7442;50.840;3.396;2023-07-09T15:22:13;9.25;;;4.67;;
14704;SDS011;7442;50.840;3.396;2023-07-09T15:25:00;9.25;;;4.40;;
14704;SDS011;7442;50.840;3.396;2023-07-09T15:27:47;7.92;;;4.85;;
14704;SDS011;7442;50.840;3.396;2023-07-09T15:30:34;8.58;;;5.08;;
14704;SDS011;7442;50.840;3.396;2023-07-09T15:33:21;8.88;;;5.08;;
14704;SDS011;7442;50.840;3.396;2023-07-09T15:36:11;7.28;;;4.87;;
14704;SDS011;7442;50.840;3.396;2023-07-09T15:38:58;6.87;;;4.50;;
14704;SDS011;7442;50.840;3.396;2023-07-09T15:41:45;7.42;;;4.33;;
14704;SDS011;7442;50.840;3.396;2023-07-09T15:44:31;8.20;;;4.65;;
14704;SDS011;7442;50.840;3.396;2023-07-09T15:47:19;8.80;;;4.53;;
14704;SDS011;7442;50.840;3.396;2023-07-09T15:50:25;8.68;;;4.53;;
14704;SDS011;7442;50.840;3.396;2023-07-09T15:53:13;7.62;;;4.50;;
14704;SDS011;7442;50.840;3.396;2023-07-09T15:56:00;7.05;;;4.08;;
14704;SDS011;7442;50.840;3.396;2023-07-09T15:58:55;7.15;;;4.55;;
14704;SDS011;7442;50.840;3.396;2023-07-09T16:01:43;5.92;;;3.60;;
14704;SDS011;7442;50.840;3.396;2023-07-09T16:04:37;9.15;;;3.45;;
14704;SDS011;7442;50.840;3.396;2023-07-09T16:07:23;11.70;;;3.70;;
14704;SDS011;7442;50.840;3.396;2023-07-09T16:10:10;6.83;;;2.85;;
14704;SDS011;7442;50.840;3.396;2023-07-09T16:12:57;5.60;;;2.70;;
14704;SDS011;7442;50.840;3.396;2023-07-09T16:15:43;9.15;;;2.65;;
14704;SDS011;7442;50.840;3.396;2023-07-09T16:18:29;6.28;;;2.55;;
14704;SDS011;7442;50.840;3.396;2023-07-09T16:21:19;5.17;;;2.50;;
14704;SDS011;7442;50.840;3.396;2023-07-09T16:24:14;6.92;;;2.47;;
14704;SDS011;7442;50.840;3.396;2023-07-09T16:27:05;3.92;;;2.10;;
14704;SDS011;7442;50.840;3.396;2023-07-09T16:29:53;4.22;;;1.85;;
14704;SDS011;7442;50.840;3.396;2023-07-09T16:32:40;5.62;;;2.30;;
14704;SDS011;7442;50.840;3.396;2023-07-09T16:35:27;5.08;;;2.12;;
14704;SDS011;7442;50.840;3.396;2023-07-09T16:38:14;5.90;;;1.92;;
14704;SDS011;7442;50.840;3.396;2023-07-09T16:41:01;5.72;;;2.47;;
14704;SDS011;7442;50.840;3.396;2023-07-09T16:43:47;6.17;;;2.12;;
14704;SDS011;7442;50.840;3.396;2023-07-09T16:46:34;5.65;;;2.05;;
14704;SDS011;7442;50.840;3.396;2023-07-09T16:52:20;7.70;;;2.30;;
14704;SDS011;7442;50.840;3.396;2023-07-09T16:55:19;6.35;;;2.15;;
14704;SDS011;7442;50.840;3.396;2023-07-09T17:01:15;5.58;;;2.22;;
14704;SDS011;7442;50.840;3.396;2023-07-09T17:07:07;5.87;;;2.08;;
14704;SDS011;7442;50.840;3.396;2023-07-09T17:09:54;7.53;;;3.20;;
14704;SDS011;7442;50.840;3.396;2023-07-09T17:12:42;5.83;;;2.08;;
14704;SDS011;7442;50.840;3.396;2023-07-09T17:15:30;5.10;;;2.05;;
14704;SDS011;7442;50.840;3.396;2023-07-09T17:18:22;5.83;;;2.50;;
14704;SDS011;7442;50.840;3.396;2023-07-09T17:21:14;4.75;;;2.40;;
14704;SDS011;7442;50.840;3.396;2023-07-09T17:24:01;7.45;;;2.50;;
14704;SDS011;7442;50.840;3.396;2023-07-09T17:26:48;7.87;;;2.80;;
14704;SDS011;7442;50.840;3.396;2023-07-09T17:29:36;9.80;;;2.58;;
14704;SDS011;7442;50.840;3.396;2023-07-09T17:32:24;7.53;;;2.60;;
14704;SDS011;7442;50.840;3.396;2023-07-09T17:35:11;6.03;;;2.37;;
14704;SDS011;7442;50.840;3.396;2023-07-09T17:37:57;7.10;;;2.60;;